Time;durP1;ratioP1;P1;durP2;ratioP2;P2;SDS_P1;SDS_P2;PMS_P1;PMS_P2;Temp;Humidity;BMP_temperature;BMP_pressure;BME280_temperature;BME280_humidity;BME280_pressure;Samples;Min_cycle;Max_cycle;Signal;HPM_P1;HPM_P2
2021/12/23 00:00:38;;;;;;;57.00;28.67;;;-3.30;99.90;;;;;;4274165;28;10021545;-71
2021/12/23 00:03:04;;;;;;;52.28;26.85;;;-3.30;99.90;;;;;;4964921;28;20058;-72
2021/12/23 00:05:30;;;;;;;49.90;26.33;;;-3.30;99.90;;;;;;4959776;28;20039;-71
2021/12/23 00:07:56;;;;;;;48.55;25.88;;;-3.30;99.90;;;;;;4956669;28;20039;-71
2021/12/23 00:10:22;;;;;;;48.13;26.88;;;-3.30;99.90;;;;;;4963789;28;20031;-72
2021/12/23 00:12:47;;;;;;;45.20;24.77;;;-3.30;99.90;;;;;;4968432;28;20023;-71
2021/12/23 00:15:49;;;;;;;46.47;24.70;;;-3.30;99.90;;;;;;4970754;28;20025;-71
2021/12/23 00:18:16;;;;;;;43.97;23.33;;;-3.30;99.90;;;;;;4968205;28;20038;-71
2021/12/23 00:23:27;;;;;;;42.05;24.17;;;-3.20;99.90;;;;;;4966484;28;20035;-72
2021/12/23 00:26:00;;;;;;;47.10;24.05;;;-3.20;99.90;;;;;;4965141;28;20650;-72
2021/12/23 00:28:27;;;;;;;45.45;23.90;;;-3.20;99.90;;;;;;4963232;28;20031;-71
2021/12/23 00:30:53;;;;;;;45.17;24.80;;;-3.10;99.90;;;;;;4968129;28;20054;-72
2021/12/23 00:33:21;;;;;;;48.00;25.85;;;-3.10;99.90;;;;;;4965289;28;20023;-72
2021/12/23 00:35:47;;;;;;;47.25;24.58;;;-3.10;99.90;;;;;;4961952;28;20031;-71
2021/12/23 00:38:19;;;;;;;47.13;25.35;;;-3.10;99.90;;;;;;4966049;28;20081;-71
2021/12/23 00:40:45;;;;;;;;;;;-3.10;99.90;;;;;;4961833;28;20090;-73
2021/12/23 00:43:11;;;;;;;47.15;23.80;;;-3.10;99.90;;;;;;4960164;28;19918;-72
2021/12/23 00:45:36;;;;;;;45.92;24.88;;;-3.10;99.90;;;;;;4963310;28;20789;-72
2021/12/23 00:48:02;;;;;;;44.60;24.27;;;-3.10;99.90;;;;;;4964540;28;20497;-72
2021/12/23 00:50:28;;;;;;;50.05;23.90;;;-3.10;99.90;;;;;;4968762;28;20027;-72
2021/12/23 00:52:59;;;;;;;45.38;23.40;;;-3.10;99.90;;;;;;4969391;28;20039;-72
2021/12/23 00:55:25;;;;;;;43.95;23.27;;;-3.10;99.90;;;;;;4955484;28;20031;-72
2021/12/23 00:57:51;;;;;;;42.58;23.67;;;-3.10;99.90;;;;;;4957721;28;20372;-72
2021/12/23 01:00:19;;;;;;;45.38;24.02;;;-3.10;99.90;;;;;;4956707;28;20038;-72
2021/12/23 01:02:46;;;;;;;45.15;23.63;;;-3.10;99.90;;;;;;4959683;28;20035;-71
2021/12/23 01:05:14;;;;;;;43.17;23.33;;;-3.10;99.90;;;;;;4956340;28;20046;-71
2021/12/23 01:07:40;;;;;;;41.88;23.58;;;-3.10;99.90;;;;;;4960959;28;20062;-71
2021/12/23 01:10:07;;;;;;;48.95;25.63;;;-3.10;99.90;;;;;;4955847;28;20039;-71
2021/12/23 01:12:43;;;;;;;42.88;24.23;;;-3.10;99.90;;;;;;4955921;28;20045;-72
2021/12/23 01:15:27;;;;;;;42.53;23.50;;;-3.10;99.90;;;;;;4957437;28;20565;-71
2021/12/23 01:18:00;;;;;;;44.13;24.60;;;-3.10;99.90;;;;;;4957467;28;20039;-72
2021/12/23 01:20:32;;;;;;;45.72;25.20;;;-3.10;99.90;;;;;;4959521;28;20050;-71
2021/12/23 01:23:01;;;;;;;44.88;25.10;;;-3.10;99.90;;;;;;4956894;28;20034;-71
2021/12/23 01:25:28;;;;;;;43.00;23.75;;;-3.10;99.90;;;;;;4958526;28;20027;-71
2021/12/23 01:27:54;;;;;;;42.13;23.45;;;-3.20;99.90;;;;;;4956551;28;20091;-71
2021/12/23 01:30:21;;;;;;;48.28;24.83;;;-3.10;99.90;;;;;;4958698;28;20451;-72
2021/12/23 01:32:49;;;;;;;45.20;24.35;;;-3.20;99.90;;;;;;4966076;28;20031;-71
2021/12/23 01:35:16;;;;;;;45.03;23.83;;;-3.10;99.90;;;;;;4964889;28;20045;-72
2021/12/23 01:37:43;;;;;;;44.33;24.23;;;-3.20;99.90;;;;;;4962939;28;20042;-72
2021/12/23 01:40:10;;;;;;;45.60;24.33;;;-3.10;99.90;;;;;;4958215;28;20488;-71
2021/12/23 01:42:36;;;;;;;51.00;24.90;;;-3.00;99.90;;;;;;4958868;28;20494;-72
2021/12/23 01:45:08;;;;;;;44.35;24.25;;;-3.10;99.90;;;;;;4958547;28;20058;-72
2021/12/23 01:47:33;;;;;;;44.88;23.90;;;-3.00;99.90;;;;;;4960859;28;20035;-72
2021/12/23 01:49:59;;;;;;;46.38;25.20;;;-2.90;99.90;;;;;;4957494;28;20106;-72
2021/12/23 01:52:25;;;;;;;46.85;25.40;;;-2.90;99.90;;;;;;4955824;28;20510;-72
2021/12/23 01:54:51;;;;;;;46.88;24.42;;;-2.80;99.90;;;;;;4955759;28;20118;-74
2021/12/23 01:57:17;;;;;;;43.53;23.30;;;-2.80;99.90;;;;;;4953213;28;20716;-73
2021/12/23 01:59:43;;;;;;;43.20;24.10;;;-2.80;99.90;;;;;;4957670;28;20050;-74
2021/12/23 02:02:09;;;;;;;46.08;24.20;;;-2.90;99.90;;;;;;4960108;28;20061;-74
2021/12/23 02:04:35;;;;;;;44.55;24.50;;;-2.90;99.90;;;;;;4955285;28;20033;-73
2021/12/23 02:07:00;;;;;;;42.20;23.67;;;-2.90;99.90;;;;;;4956406;28;20039;-73
2021/12/23 02:09:26;;;;;;;44.42;23.27;;;-3.00;99.90;;;;;;4957608;28;20063;-73
2021/12/23 02:11:51;;;;;;;49.25;25.02;;;-2.90;99.90;;;;;;4955649;28;20027;-73
2021/12/23 02:14:18;;;;;;;46.80;24.60;;;-2.90;99.90;;;;;;4954420;28;20033;-73
2021/12/23 02:16:43;;;;;;;41.28;22.27;;;-2.90;99.90;;;;;;4956786;28;20449;-73
2021/12/23 02:19:18;;;;;;;45.38;24.25;;;-2.90;99.90;;;;;;4959561;28;20031;-73
2021/12/23 02:21:47;;;;;;;50.97;26.08;;;-2.90;99.90;;;;;;4961412;28;20145;-73
2021/12/23 02:24:14;;;;;;;48.90;25.25;;;-2.90;99.90;;;;;;4954452;28;20023;-73
2021/12/23 02:26:41;;;;;;;46.03;24.60;;;-2.90;99.90;;;;;;4955959;28;20526;-73
2021/12/23 02:29:07;;;;;;;50.33;27.38;;;-2.90;99.90;;;;;;4956318;28;20088;-73
2021/12/23 02:31:33;;;;;;;47.63;25.40;;;-2.90;99.90;;;;;;4958594;28;20391;-73
2021/12/23 02:33:59;;;;;;;48.70;26.38;;;-2.90;99.90;;;;;;4955545;28;20025;-73
2021/12/23 02:36:26;;;;;;;46.85;26.05;;;-2.80;99.90;;;;;;4960954;28;20030;-74
2021/12/23 02:38:53;;;;;;;47.35;25.17;;;-2.80;99.90;;;;;;4957549;28;20050;-73
2021/12/23 02:41:19;;;;;;;46.88;26.45;;;-2.80;99.90;;;;;;4954508;28;20086;-73
2021/12/23 02:43:45;;;;;;;51.25;26.17;;;-2.80;99.90;;;;;;4957400;28;20541;-73
2021/12/23 02:46:11;;;;;;;48.67;26.02;;;-2.70;99.90;;;;;;4958807;28;20161;-73
2021/12/23 02:48:38;;;;;;;45.35;24.77;;;-2.70;99.90;;;;;;4958683;28;20106;-73
2021/12/23 02:51:11;;;;;;;46.65;25.00;;;-2.70;99.90;;;;;;4957862;28;20035;-73
2021/12/23 02:53:39;;;;;;;47.80;26.13;;;-2.60;99.90;;;;;;4957035;28;20031;-73
2021/12/23 02:56:07;;;;;;;46.75;24.67;;;-2.60;99.90;;;;;;4960040;28;20518;-73
2021/12/23 02:58:33;;;;;;;46.33;25.00;;;-2.60;99.90;;;;;;4958413;28;20037;-73
2021/12/23 03:01:01;;;;;;;49.85;27.02;;;-2.60;99.90;;;;;;4961922;28;20031;-72
2021/12/23 03:03:27;;;;;;;46.83;26.08;;;-2.60;99.90;;;;;;4962577;28;20027;-73
2021/12/23 03:05:56;;;;;;;46.90;26.33;;;-2.60;99.90;;;;;;4960079;28;20046;-73
2021/12/23 03:08:40;;;;;;;48.63;26.55;;;-2.50;99.90;;;;;;4959255;28;20077;-73
2021/12/23 03:11:07;;;;;;;47.00;26.33;;;-2.60;99.90;;;;;;4960964;28;20723;-73
2021/12/23 03:13:34;;;;;;;50.47;26.50;;;-2.60;99.90;;;;;;4959686;28;20035;-73
2021/12/23 03:16:00;;;;;;;50.35;26.38;;;-2.50;99.90;;;;;;4960997;28;20113;-73
2021/12/23 03:18:26;;;;;;;49.22;26.58;;;-2.60;99.90;;;;;;4963917;28;20031;-73
2021/12/23 03:20:52;;;;;;;48.47;25.75;;;-2.60;99.90;;;;;;4958341;28;20041;-73
2021/12/23 03:23:18;;;;;;;49.65;26.73;;;-2.60;99.90;;;;;;4959509;28;20046;-73
2021/12/23 03:25:43;;;;;;;50.85;26.00;;;-2.60;99.90;;;;;;4963558;28;20035;-73
2021/12/23 03:28:09;;;;;;;51.65;26.77;;;-2.60;99.90;;;;;;4959425;28;20655;-73
2021/12/23 03:30:35;;;;;;;47.35;26.98;;;-2.50;99.90;;;;;;4958914;28;20042;-73
2021/12/23 03:33:01;;;;;;;48.50;26.35;;;-2.50;99.90;;;;;;4959554;28;20023;-73
2021/12/23 03:35:26;;;;;;;48.42;27.10;;;-2.50;99.90;;;;;;4958582;28;20042;-72
2021/12/23 03:37:53;;;;;;;50.95;27.00;;;-2.50;99.90;;;;;;4957890;28;20027;-73
2021/12/23 03:40:19;;;;;;;52.25;27.35;;;-2.50;99.90;;;;;;4959627;28;20037;-72
2021/12/23 03:42:45;;;;;;;51.70;27.80;;;-2.50;99.90;;;;;;4959085;28;20027;-72
2021/12/23 03:45:11;;;;;;;49.63;26.15;;;-2.50;99.90;;;;;;4961211;28;20030;-73
2021/12/23 03:47:36;;;;;;;47.25;25.92;;;-2.50;99.90;;;;;;4961186;28;20074;-72
2021/12/23 03:50:04;;;;;;;46.28;25.90;;;-2.50;99.90;;;;;;4961487;28;20027;-72
2021/12/23 03:52:30;;;;;;;49.33;27.95;;;-2.40;99.90;;;;;;4969409;28;20065;-72
2021/12/23 03:54:56;;;;;;;48.67;26.92;;;-2.40;99.90;;;;;;4956984;28;20043;-72
2021/12/23 03:57:21;;;;;;;53.28;28.23;;;-2.40;99.90;;;;;;4958142;28;20037;-72
2021/12/23 03:59:47;;;;;;;48.83;28.35;;;-2.50;99.90;;;;;;4956392;28;20086;-72
2021/12/23 04:02:13;;;;;;;51.63;28.38;;;-2.50;99.90;;;;;;4958176;28;20024;-72
2021/12/23 04:04:38;;;;;;;50.13;28.10;;;-2.50;99.90;;;;;;4957924;28;20035;-72
2021/12/23 04:07:04;;;;;;;54.67;27.75;;;-2.50;99.90;;;;;;4957774;28;20511;-72
2021/12/23 04:09:30;;;;;;;49.05;27.42;;;-2.50;99.90;;;;;;4964390;28;20023;-72
2021/12/23 04:11:55;;;;;;;51.55;28.55;;;-2.50;99.90;;;;;;4955297;28;20235;-72
2021/12/23 04:14:21;;;;;;;52.85;28.45;;;-2.50;99.90;;;;;;4956937;28;20648;-72
2021/12/23 04:16:47;;;;;;;53.90;28.88;;;-2.50;99.90;;;;;;4955935;28;20027;-72
2021/12/23 04:19:13;;;;;;;54.33;27.83;;;-2.40;99.90;;;;;;4962460;28;20092;-73
2021/12/23 04:21:40;;;;;;;50.95;27.80;;;-2.40;99.90;;;;;;4970150;28;20027;-72
2021/12/23 04:24:06;;;;;;;54.25;28.45;;;-2.40;99.90;;;;;;4969347;28;20386;-72
2021/12/23 04:26:32;;;;;;;51.65;28.02;;;-2.40;99.90;;;;;;4966491;28;20097;-72
2021/12/23 04:28:58;;;;;;;52.47;28.70;;;-2.40;99.90;;;;;;4962613;28;20433;-72
2021/12/23 04:31:24;;;;;;;55.28;30.67;;;-2.40;99.90;;;;;;4958184;28;20355;-72
2021/12/23 04:33:52;;;;;;;51.35;28.52;;;-2.40;99.90;;;;;;4956203;28;20054;-73
2021/12/23 04:36:18;;;;;;;56.40;30.27;;;-2.40;99.90;;;;;;4956924;28;20406;-73
2021/12/23 04:38:46;;;;;;;54.05;29.98;;;-2.40;99.90;;;;;;4963802;28;20074;-73
2021/12/23 04:41:14;;;;;;;53.88;29.10;;;-2.40;99.90;;;;;;4964002;28;20035;-73
2021/12/23 04:43:41;;;;;;;57.55;30.00;;;-2.40;99.90;;;;;;4967620;28;20015;-72
2021/12/23 04:46:07;;;;;;;56.80;30.85;;;-2.40;99.90;;;;;;4966513;28;20466;-72
2021/12/23 04:48:34;;;;;;;56.50;30.15;;;-2.40;99.90;;;;;;4957845;28;20526;-73
2021/12/23 04:51:01;;;;;;;57.17;30.17;;;-2.40;99.90;;;;;;4959924;28;20035;-73
2021/12/23 04:53:27;;;;;;;57.15;31.42;;;-2.40;99.90;;;;;;4966705;28;20053;-73
2021/12/23 04:55:53;;;;;;;55.97;30.52;;;-2.40;99.90;;;;;;4969062;28;20571;-73
2021/12/23 04:58:19;;;;;;;57.47;31.95;;;-2.40;99.90;;;;;;4967670;28;20483;-73
2021/12/23 05:00:51;;;;;;;56.15;30.95;;;-2.40;99.90;;;;;;4965433;28;20069;-73
2021/12/23 05:03:18;;;;;;;56.78;30.40;;;-2.40;99.90;;;;;;4967372;28;20018;-72
2021/12/23 05:05:45;;;;;;;55.10;31.30;;;-2.40;99.90;;;;;;4965640;28;20050;-72
2021/12/23 05:08:12;;;;;;;53.75;30.33;;;-2.40;99.90;;;;;;4963495;28;20113;-72
2021/12/23 05:10:38;;;;;;;57.88;30.70;;;-2.40;99.90;;;;;;4961274;28;20031;-72
2021/12/23 05:13:04;;;;;;;58.97;32.05;;;-2.40;99.90;;;;;;4968077;28;20054;-72
2021/12/23 05:15:30;;;;;;;56.78;31.15;;;-2.30;99.90;;;;;;4965742;28;20113;-73
2021/12/23 05:17:56;;;;;;;58.05;31.80;;;-2.40;99.90;;;;;;4961066;28;20030;-73
2021/12/23 05:20:22;;;;;;;57.85;30.80;;;-2.40;99.90;;;;;;4966972;28;20030;-73
2021/12/23 05:22:48;;;;;;;54.08;30.20;;;-2.40;99.90;;;;;;4966049;28;20030;-72
2021/12/23 05:25:14;;;;;;;55.78;30.23;;;-2.40;99.90;;;;;;4968701;28;20030;-72
2021/12/23 05:27:40;;;;;;;59.13;31.35;;;-2.40;99.90;;;;;;4964809;28;20046;-72
2021/12/23 05:30:09;;;;;;;63.38;32.40;;;-2.40;99.90;;;;;;4959288;28;20038;-72
2021/12/23 05:32:35;;;;;;;57.08;30.98;;;-2.40;99.90;;;;;;4968860;28;20105;-73
2021/12/23 05:35:01;;;;;;;59.85;30.65;;;-2.40;99.90;;;;;;4966870;28;20113;-73
2021/12/23 05:37:27;;;;;;;59.80;31.65;;;-2.40;99.90;;;;;;4967966;28;20027;-72
2021/12/23 05:39:52;;;;;;;56.75;31.13;;;-2.40;99.90;;;;;;4963985;28;20057;-73
2021/12/23 05:42:18;;;;;;;54.97;30.92;;;-2.40;99.90;;;;;;4965808;28;20024;-72
2021/12/23 05:44:44;;;;;;;61.50;33.38;;;-2.40;99.90;;;;;;4966330;28;20074;-72
2021/12/23 05:47:09;;;;;;;73.45;35.50;;;-2.40;99.90;;;;;;4972375;28;20030;-73
2021/12/23 05:49:35;;;;;;;73.82;36.08;;;-2.50;99.90;;;;;;4968291;28;20054;-72
2021/12/23 05:52:00;;;;;;;71.50;35.95;;;-2.50;99.90;;;;;;4962595;28;20031;-72
2021/12/23 05:54:26;;;;;;;63.15;32.80;;;-2.50;99.90;;;;;;4963711;28;20039;-72
2021/12/23 05:56:52;;;;;;;61.85;33.35;;;-2.40;99.90;;;;;;4959777;28;20450;-73
2021/12/23 05:59:17;;;;;;;64.95;32.55;;;-2.40;99.90;;;;;;4960656;28;20030;-72
2021/12/23 06:01:43;;;;;;;59.03;31.67;;;-2.40;99.90;;;;;;4962356;28;20537;-73
2021/12/23 06:04:08;;;;;;;62.08;34.10;;;-2.40;99.90;;;;;;4964542;28;20030;-72
2021/12/23 06:06:34;;;;;;;64.70;34.47;;;-2.50;99.90;;;;;;4964943;28;20038;-72
2021/12/23 06:09:00;;;;;;;66.38;35.40;;;-2.50;99.90;;;;;;4963516;28;20538;-72
2021/12/23 06:11:26;;;;;;;66.68;34.97;;;-2.40;99.90;;;;;;4961382;28;20078;-73
2021/12/23 06:13:52;;;;;;;64.75;34.00;;;-2.50;99.90;;;;;;4957500;28;20062;-73
2021/12/23 06:16:17;;;;;;;65.45;35.53;;;-2.40;99.90;;;;;;4968510;28;20034;-73
2021/12/23 06:18:43;;;;;;;68.63;35.50;;;-2.40;99.90;;;;;;4957384;28;20042;-73
2021/12/23 06:21:09;;;;;;;66.97;33.80;;;-2.40;99.90;;;;;;4960993;28;20523;-73
2021/12/23 06:23:34;;;;;;;58.75;32.60;;;-2.30;99.90;;;;;;4970566;28;20453;-72
2021/12/23 06:26:00;;;;;;;63.10;33.78;;;-2.30;99.90;;;;;;4968145;28;20553;-72
2021/12/23 06:28:26;;;;;;;60.58;32.65;;;-2.30;99.90;;;;;;4963425;28;20398;-73
2021/12/23 06:30:52;;;;;;;61.97;32.70;;;-2.30;99.90;;;;;;4967315;28;20712;-72
2021/12/23 06:33:17;;;;;;;65.70;35.08;;;-2.30;99.90;;;;;;4958795;28;20114;-73
2021/12/23 06:35:43;;;;;;;65.75;33.65;;;-2.30;99.90;;;;;;4970455;28;20030;-73
2021/12/23 06:38:11;;;;;;;66.25;34.58;;;-2.30;99.90;;;;;;4623107;28;10000517;-74
2021/12/23 06:40:38;;;;;;;63.28;33.63;;;-2.40;99.90;;;;;;4966004;28;20038;-72
2021/12/23 06:43:04;;;;;;;64.88;33.97;;;-2.40;99.90;;;;;;4971675;28;20031;-72
2021/12/23 06:45:30;;;;;;;66.18;34.97;;;-2.40;99.90;;;;;;4956805;28;20046;-72
2021/12/23 06:47:55;;;;;;;69.25;36.05;;;-2.40;99.90;;;;;;4953151;28;20031;-73
2021/12/23 06:50:22;;;;;;;65.60;34.63;;;-2.50;99.90;;;;;;4969614;28;20093;-73
2021/12/23 06:52:49;;;;;;;64.78;34.45;;;-2.40;99.90;;;;;;4963854;28;20038;-73
2021/12/23 06:55:15;;;;;;;68.40;36.30;;;-2.40;99.90;;;;;;4961382;28;20102;-72
2021/12/23 06:57:42;;;;;;;67.00;35.03;;;-2.40;99.90;;;;;;4969269;28;20514;-73
2021/12/23 07:00:11;;;;;;;66.05;35.50;;;-2.40;99.90;;;;;;4959647;28;20439;-73
2021/12/23 07:02:39;;;;;;;66.63;35.10;;;-2.40;99.90;;;;;;4962668;28;20038;-73
2021/12/23 07:05:09;;;;;;;65.40;34.53;;;-2.40;99.90;;;;;;4966631;28;20059;-73
2021/12/23 07:07:54;;;;;;;66.13;35.35;;;-2.40;99.90;;;;;;4957063;28;20125;-73
2021/12/23 07:10:22;;;;;;;72.00;36.22;;;-2.40;99.90;;;;;;4960114;28;20034;-73
2021/12/23 07:12:48;;;;;;;72.00;37.53;;;-2.40;99.90;;;;;;4970720;28;20487;-73
2021/12/23 07:15:14;;;;;;;72.65;36.20;;;-2.40;99.90;;;;;;4964533;28;20133;-73
2021/12/23 07:17:40;;;;;;;64.10;35.20;;;-2.40;99.90;;;;;;4957465;28;20055;-73
2021/12/23 07:20:07;;;;;;;66.05;34.72;;;-2.40;99.90;;;;;;4960119;28;20035;-73
2021/12/23 07:22:33;;;;;;;66.63;34.47;;;-2.40;99.90;;;;;;4967575;28;20070;-73
2021/12/23 07:24:59;;;;;;;72.93;36.55;;;-2.40;99.90;;;;;;4963739;28;20113;-73
2021/12/23 07:27:25;;;;;;;69.35;36.10;;;-2.50;99.90;;;;;;4969732;28;20043;-73
2021/12/23 07:29:50;;;;;;;67.10;36.08;;;-2.50;99.90;;;;;;4962950;28;20051;-72
2021/12/23 07:32:16;;;;;;;66.45;35.03;;;-2.50;99.90;;;;;;4970951;28;20130;-73
2021/12/23 07:34:43;;;;;;;68.82;36.05;;;-2.50;99.90;;;;;;4973273;28;20053;-72
2021/12/23 07:37:10;;;;;;;65.47;33.72;;;-2.50;99.90;;;;;;4972613;28;20219;-72
2021/12/23 07:39:38;;;;;;;77.65;42.70;;;-2.50;99.90;;;;;;4969964;28;20137;-72
2021/12/23 07:42:06;;;;;;;74.50;42.13;;;-2.40;99.90;;;;;;4968598;28;20039;-72
2021/12/23 07:44:33;;;;;;;73.70;38.88;;;-2.40;99.90;;;;;;4972953;28;20041;-72
2021/12/23 07:46:58;;;;;;;70.05;36.42;;;-2.40;99.90;;;;;;4973098;28;20035;-72
2021/12/23 07:49:24;;;;;;;66.22;36.15;;;-2.40;99.90;;;;;;4972372;28;20315;-72
2021/12/23 07:51:50;;;;;;;72.22;36.35;;;-2.30;99.90;;;;;;4968443;28;20023;-72
2021/12/23 07:54:17;;;;;;;65.38;35.15;;;-2.30;99.90;;;;;;4972654;28;20086;-72
2021/12/23 07:56:42;;;;;;;69.60;35.65;;;-2.30;99.90;;;;;;4971916;28;20030;-72
2021/12/23 07:59:08;;;;;;;69.70;36.35;;;-2.30;99.90;;;;;;4953608;28;20024;-72
2021/12/23 08:01:34;;;;;;;65.07;36.13;;;-2.30;99.90;;;;;;4962912;28;20034;-72
2021/12/23 08:04:00;;;;;;;70.15;36.80;;;-2.30;99.90;;;;;;4962398;28;20591;-73
2021/12/23 08:06:27;;;;;;;68.78;35.25;;;-2.30;99.90;;;;;;4966646;28;20054;-72
2021/12/23 08:08:53;;;;;;;71.80;39.70;;;-2.20;99.90;;;;;;4972376;28;20112;-73
2021/12/23 08:11:19;;;;;;;65.78;35.10;;;-2.20;99.90;;;;;;4977389;28;20065;-72
2021/12/23 08:13:45;;;;;;;72.05;37.05;;;-2.20;99.90;;;;;;4968789;28;20093;-73
2021/12/23 08:16:10;;;;;;;71.25;38.25;;;-2.20;99.90;;;;;;4958587;28;20027;-72
2021/12/23 08:18:36;;;;;;;73.30;38.22;;;-2.20;99.90;;;;;;4972183;28;20603;-72
2021/12/23 08:21:02;;;;;;;72.68;38.30;;;-2.20;99.90;;;;;;4956910;28;20114;-73
2021/12/23 08:23:28;;;;;;;68.40;36.65;;;-2.20;99.90;;;;;;4962099;28;20031;-73
2021/12/23 08:25:54;;;;;;;69.47;37.75;;;-2.10;99.90;;;;;;4965715;28;20427;-74
2021/12/23 08:28:20;;;;;;;70.05;37.38;;;-2.10;99.90;;;;;;4272658;28;10000819;-73
2021/12/23 08:30:46;;;;;;;71.40;37.22;;;-2.10;99.90;;;;;;4956396;28;20047;-74
2021/12/23 08:33:12;;;;;;;78.57;39.10;;;-2.10;99.90;;;;;;4956897;28;20038;-73
2021/12/23 08:35:38;;;;;;;76.35;37.75;;;-2.10;99.90;;;;;;4961778;28;20039;-73
2021/12/23 08:38:05;;;;;;;72.50;37.97;;;-2.10;99.90;;;;;;4959247;28;20039;-73
2021/12/23 08:40:32;;;;;;;72.85;38.40;;;-2.00;99.90;;;;;;4965695;28;20089;-73
2021/12/23 08:42:58;;;;;;;72.07;39.03;;;-2.00;99.90;;;;;;4968652;28;20506;-73
2021/12/23 08:45:26;;;;;;;74.28;38.50;;;-2.00;99.90;;;;;;4962959;28;20117;-74
2021/12/23 08:47:54;;;;;;;70.10;38.38;;;-2.00;99.90;;;;;;4962626;28;20468;-73
2021/12/23 08:50:21;;;;;;;73.70;38.67;;;-2.00;99.90;;;;;;4964514;28;20562;-73
2021/12/23 08:52:47;;;;;;;77.45;39.20;;;-1.90;99.90;;;;;;4962902;28;20077;-74
2021/12/23 08:55:14;;;;;;;69.32;38.47;;;-1.90;99.90;;;;;;4963393;28;20046;-73
2021/12/23 08:57:40;;;;;;;75.78;39.88;;;-1.90;99.90;;;;;;4960772;28;20055;-73
2021/12/23 09:00:10;;;;;;;81.28;41.75;;;-1.90;99.90;;;;;;4960013;28;20038;-73
2021/12/23 09:02:36;;;;;;;77.07;39.83;;;-1.80;99.90;;;;;;4956936;28;20034;-73
2021/12/23 09:05:02;;;;;;;90.80;42.60;;;-1.80;99.90;;;;;;4957099;28;20773;-73
2021/12/23 09:07:28;;;;;;;82.43;41.10;;;-1.80;99.90;;;;;;4964796;28;20082;-73
2021/12/23 09:09:53;;;;;;;83.13;42.55;;;-1.80;99.90;;;;;;4968292;28;20066;-73
2021/12/23 09:12:20;;;;;;;81.65;41.75;;;-1.70;99.90;;;;;;4964234;28;20042;-73
2021/12/23 09:14:46;;;;;;;86.75;43.83;;;-1.70;99.90;;;;;;4961013;28;20077;-73
2021/12/23 09:17:13;;;;;;;88.43;43.95;;;-1.60;99.90;;;;;;4955817;28;20038;-74
2021/12/23 09:19:39;;;;;;;90.13;45.03;;;-1.60;99.90;;;;;;4965118;28;20121;-73
2021/12/23 09:22:05;;;;;;;91.97;44.90;;;-1.60;99.90;;;;;;4616950;28;10000718;-74
2021/12/23 09:24:31;;;;;;;84.63;42.47;;;-1.50;99.90;;;;;;4963112;28;20023;-74
2021/12/23 09:27:08;;;;;;;87.55;45.55;;;-1.50;99.90;;;;;;4966150;28;20098;-79
2021/12/23 09:34:55;;;;;;;86.07;43.42;;;-1.40;99.90;;;;;;4958320;28;20050;-74
2021/12/23 09:37:22;;;;;;;92.10;44.75;;;-1.40;99.90;;;;;;4963393;28;20082;-75
2021/12/23 09:39:53;;;;;;;86.60;42.80;;;-1.40;99.90;;;;;;4962332;28;20023;-75
2021/12/23 09:42:31;;;;;;;89.90;43.50;;;-1.30;99.90;;;;;;4960076;28;20038;-73
2021/12/23 09:45:01;;;;;;;86.20;42.58;;;-1.30;99.90;;;;;;4960632;28;20035;-73
2021/12/23 09:47:29;;;;;;;88.18;42.75;;;-1.30;99.90;;;;;;4965311;28;20042;-73
2021/12/23 09:49:56;;;;;;;86.07;44.55;;;-1.40;99.90;;;;;;4958066;28;20157;-73
2021/12/23 09:52:23;;;;;;;88.45;43.90;;;-1.30;99.90;;;;;;4953332;28;20035;-72
2021/12/23 09:54:50;;;;;;;91.97;44.67;;;-1.30;99.90;;;;;;4952641;28;20027;-73
2021/12/23 09:57:16;;;;;;;90.45;45.15;;;-1.20;99.90;;;;;;4952371;28;20045;-73
2021/12/23 09:59:43;;;;;;;91.90;45.13;;;-1.20;99.90;;;;;;4955190;28;20038;-74
2021/12/23 10:02:10;;;;;;;92.65;46.00;;;-1.20;99.90;;;;;;4957369;28;20146;-73
2021/12/23 10:04:36;;;;;;;86.13;43.90;;;-1.20;99.90;;;;;;4959264;28;20130;-73
2021/12/23 10:07:03;;;;;;;93.97;44.90;;;-1.10;99.90;;;;;;4960614;28;20066;-72
2021/12/23 10:09:46;;;;;;;93.57;45.53;;;-1.10;99.90;;;;;;4956536;28;20058;-72
2021/12/23 10:31:29;;;;;;;91.22;44.67;;;-0.90;99.90;;;;;;4958650;28;20073;-73
2021/12/23 10:40:03;;;;;;;96.03;46.33;;;-0.90;99.90;;;;;;4960417;28;20035;-72
2021/12/23 10:42:30;;;;;;;100.85;47.25;;;-0.80;99.90;;;;;;4958261;28;20031;-73
2021/12/23 10:44:58;;;;;;;102.00;49.83;;;-0.80;99.90;;;;;;4962653;28;20035;-73
2021/12/23 10:47:36;;;;;;;101.88;47.13;;;-0.80;99.90;;;;;;4958807;28;20689;-75
2021/12/23 10:50:37;;;;;;;101.10;46.88;;;-0.80;99.90;;;;;;4953925;28;20516;-75
2021/12/23 10:53:09;;;;;;;99.32;46.58;;;-0.70;99.90;;;;;;4953075;28;20037;-75
2021/12/23 10:58:20;;;;;;;109.38;50.58;;;-0.70;99.90;;;;;;4946578;28;20108;-75
2021/12/23 11:00:52;;;;;;;97.03;47.20;;;-0.70;99.90;;;;;;4959993;28;20034;-74
2021/12/23 11:06:41;;;;;;;;;;;-0.70;99.90;;;;;;4959259;28;20096;-74
2021/12/23 11:27:17;;;;;;;99.35;45.90;;;-0.70;99.90;;;;;;4970716;28;20075;-74
2021/12/23 11:42:01;;;;;;;92.25;45.35;;;-0.40;99.90;;;;;;4965812;28;20030;-74
2021/12/23 11:44:31;;;;;;;98.30;46.35;;;-0.40;99.90;;;;;;4967079;28;20078;-75
2021/12/23 11:47:02;;;;;;;95.45;44.83;;;-0.40;99.90;;;;;;4958992;28;20035;-74
2021/12/23 11:49:28;;;;;;;99.85;45.67;;;-0.40;99.90;;;;;;4962930;28;20097;-74
2021/12/23 11:51:55;;;;;;;97.47;46.67;;;-0.40;99.90;;;;;;4961288;28;20023;-74
2021/12/23 11:54:27;;;;;;;94.95;44.72;;;-0.50;99.90;;;;;;4962220;28;20035;-74
2021/12/23 11:57:01;;;;;;;89.80;44.47;;;-0.50;99.90;;;;;;4958214;28;20034;-74
2021/12/23 11:59:26;;;;;;;92.63;46.80;;;-0.50;99.90;;;;;;4954382;28;20695;-74
2021/12/23 12:01:54;;;;;;;88.07;43.42;;;-0.40;99.90;;;;;;4960428;28;20041;-74
2021/12/23 12:04:22;;;;;;;91.75;44.53;;;-0.40;99.90;;;;;;4962424;28;20122;-75
2021/12/23 12:06:50;;;;;;;90.13;45.15;;;-0.40;99.90;;;;;;4962376;28;20042;-74
2021/12/23 12:09:31;;;;;;;89.10;44.05;;;-0.40;99.90;;;;;;4965506;28;20035;-75
2021/12/23 12:11:59;;;;;;;94.75;45.78;;;-0.40;99.90;;;;;;4981041;28;20137;-74
2021/12/23 12:14:38;;;;;;;94.05;45.97;;;-0.40;99.90;;;;;;4964328;28;20050;-74
2021/12/23 12:17:23;;;;;;;102.32;48.63;;;-0.40;99.90;;;;;;4964141;28;20070;-74
2021/12/23 12:19:58;;;;;;;96.70;47.80;;;-0.40;99.90;;;;;;4961864;28;20043;-74
2021/12/23 12:22:49;;;;;;;92.75;44.85;;;-0.40;99.90;;;;;;4963717;28;20034;-75
2021/12/23 12:25:24;;;;;;;98.18;46.05;;;-0.40;99.90;;;;;;4958465;28;20262;-75
2021/12/23 12:27:55;;;;;;;96.45;44.95;;;-0.40;99.90;;;;;;4963508;28;20035;-75
2021/12/23 12:30:53;;;;;;;92.28;44.55;;;-0.40;99.90;;;;;;4958460;28;20538;-76
2021/12/23 12:33:18;;;;;;;94.50;43.78;;;-0.40;99.90;;;;;;4962185;28;20114;-76
2021/12/23 12:35:49;;;;;;;90.20;43.85;;;-0.40;99.90;;;;;;4963172;28;20503;-76
2021/12/23 12:38:19;;;;;;;94.43;44.50;;;-0.40;99.90;;;;;;4958555;28;20522;-76
2021/12/23 12:41:09;;;;;;;96.60;46.50;;;-0.40;99.90;;;;;;4958232;28;20038;-76
2021/12/23 12:43:40;;;;;;;90.55;43.80;;;-0.40;99.90;;;;;;4959517;28;20077;-74
2021/12/23 12:46:13;;;;;;;100.30;47.35;;;-0.40;99.90;;;;;;4966395;28;20593;-74
2021/12/23 12:48:57;;;;;;;90.65;45.08;;;-0.40;99.90;;;;;;4964702;28;20038;-74
2021/12/23 12:51:26;;;;;;;98.53;46.13;;;-0.40;99.90;;;;;;4960129;28;20428;-74
2021/12/23 12:53:55;;;;;;;99.07;49.15;;;-0.30;99.90;;;;;;4959303;28;20115;-73
2021/12/23 12:56:28;;;;;;;98.55;48.22;;;-0.30;99.90;;;;;;4965011;28;20044;-74
2021/12/23 12:58:54;;;;;;;80.13;36.83;;;-0.30;99.90;;;;;;4962687;28;20045;-74
2021/12/23 13:01:34;;;;;;;99.82;47.38;;;-0.30;99.90;;;;;;4962931;28;20042;-74
2021/12/23 13:04:01;;;;;;;98.57;47.67;;;-0.30;99.90;;;;;;4960901;28;20456;-74
2021/12/23 13:06:45;;;;;;;100.15;46.67;;;-0.40;99.90;;;;;;4966322;28;20165;-75
2021/12/23 13:09:13;;;;;;;94.90;47.90;;;-0.30;99.90;;;;;;4964607;28;20031;-75
2021/12/23 13:11:48;;;;;;;98.28;47.35;;;-0.40;99.90;;;;;;4962853;28;20035;-73
2021/12/23 13:14:21;;;;;;;89.10;44.58;;;-0.40;99.90;;;;;;4969602;28;20122;-73
2021/12/23 13:16:51;;;;;;;94.13;45.70;;;-0.30;99.90;;;;;;4966042;28;20423;-73
2021/12/23 13:19:16;;;;;;;91.93;44.97;;;-0.30;99.90;;;;;;4965550;28;20042;-73
2021/12/23 13:21:44;;;;;;;96.63;45.72;;;-0.30;99.90;;;;;;4970669;28;20022;-74
2021/12/23 13:24:12;;;;;;;95.57;46.08;;;-0.30;99.90;;;;;;4964952;28;20030;-74
2021/12/23 13:26:37;;;;;;;94.72;46.80;;;-0.30;99.90;;;;;;4960850;28;20019;-73
2021/12/23 13:29:06;;;;;;;100.22;47.50;;;-0.30;99.90;;;;;;4959167;28;20034;-75
2021/12/23 13:31:35;;;;;;;98.03;46.97;;;-0.30;99.90;;;;;;4964752;28;20109;-74
2021/12/23 13:34:05;;;;;;;93.53;45.47;;;-0.30;99.90;;;;;;4959065;28;20387;-74
2021/12/23 13:36:45;;;;;;;101.10;51.42;;;-0.20;99.90;;;;;;4958353;28;20023;-75
2021/12/23 13:39:16;;;;;;;90.97;45.25;;;-0.20;99.90;;;;;;4964970;28;20034;-74